sensor_id;sensor_type;location;lat;lon;timestamp;pressure;altitude;pressure_sealevel;temperature;humidity
57827;BME280;43656;57.746;11.780;2023-01-27T00:01:01;102880.44;;;1.94;81.37
57827;BME280;43656;57.746;11.780;2023-01-27T00:03:27;102888.41;;;1.94;81.28
57827;BME280;43656;57.746;11.780;2023-01-27T00:05:52;102885.84;;;1.92;81.29
57827;BME280;43656;57.746;11.780;2023-01-27T00:08:19;102883.56;;;1.86;81.35
57827;BME280;43656;57.746;11.780;2023-01-27T00:10:44;102875.34;;;1.75;81.01
57827;BME280;43656;57.746;11.780;2023-01-27T00:13:14;102885.13;;;1.74;80.86
57827;BME280;43656;57.746;11.780;2023-01-27T00:15:51;102890.22;;;1.63;81.40
57827;BME280;43656;57.746;11.780;2023-01-27T00:18:18;102883.00;;;1.65;81.41
57827;BME280;43656;57.746;11.780;2023-01-27T00:20:45;102886.31;;;1.69;81.57
57827;BME280;43656;57.746;11.780;2023-01-27T00:23:30;102875.88;;;1.65;81.21
57827;BME280;43656;57.746;11.780;2023-01-27T00:26:16;102835.66;;;1.43;81.49
57827;BME280;43656;57.746;11.780;2023-01-27T00:28:43;102842.94;;;1.39;81.79
57827;BME280;43656;57.746;11.780;2023-01-27T00:31:11;102863.38;;;1.53;81.89
57827;BME280;43656;57.746;11.780;2023-01-27T00:33:55;102865.25;;;1.51;81.66
57827;BME280;43656;57.746;11.780;2023-01-27T00:36:29;102873.97;;;1.53;81.98
57827;BME280;43656;57.746;11.780;2023-01-27T00:38:55;102865.25;;;1.51;81.55
57827;BME280;43656;57.746;11.780;2023-01-27T00:41:21;102862.69;;;1.50;81.73
57827;BME280;43656;57.746;11.780;2023-01-27T00:43:52;102859.97;;;1.35;82.10
57827;BME280;43656;57.746;11.780;2023-01-27T00:46:19;102868.09;;;1.32;82.84
57827;BME280;43656;57.746;11.780;2023-01-27T00:48:46;102855.78;;;1.31;82.07
57827;BME280;43656;57.746;11.780;2023-01-27T00:51:12;102873.06;;;1.38;81.83
57827;BME280;43656;57.746;11.780;2023-01-27T00:53:38;102875.69;;;1.38;82.01
57827;BME280;43656;57.746;11.780;2023-01-27T00:56:04;102871.44;;;1.36;82.03
57827;BME280;43656;57.746;11.780;2023-01-27T00:58:30;102862.13;;;1.29;81.92
57827;BME280;43656;57.746;11.780;2023-01-27T01:00:57;102876.03;;;1.32;82.00
57827;BME280;43656;57.746;11.780;2023-01-27T01:03:27;102880.59;;;1.30;81.62
57827;BME280;43656;57.746;11.780;2023-01-27T01:06:01;102874.63;;;1.27;82.08
57827;BME280;43656;57.746;11.780;2023-01-27T01:08:27;102859.13;;;1.19;81.86
57827;BME280;43656;57.746;11.780;2023-01-27T01:10:53;102881.06;;;1.23;81.89
57827;BME280;43656;57.746;11.780;2023-01-27T01:13:19;102871.53;;;1.18;82.04
57827;BME280;43656;57.746;11.780;2023-01-27T01:15:46;102798.22;;;0.72;82.24
57827;BME280;43656;57.746;11.780;2023-01-27T01:18:12;102890.78;;;1.22;82.22
57827;BME280;43656;57.746;11.780;2023-01-27T01:20:40;102889.00;;;1.23;82.45
57827;BME280;43656;57.746;11.780;2023-01-27T01:23:07;102887.56;;;1.17;81.79
57827;BME280;43656;57.746;11.780;2023-01-27T01:25:33;102889.41;;;1.15;82.15
57827;BME280;43656;57.746;11.780;2023-01-27T01:27:59;102876.34;;;1.12;82.03
57827;BME280;43656;57.746;11.780;2023-01-27T01:30:25;102872.84;;;1.11;82.22
57827;BME280;43656;57.746;11.780;2023-01-27T01:32:55;102879.75;;;1.14;82.04
57827;BME280;43656;57.746;11.780;2023-01-27T01:35:21;102881.56;;;1.13;82.32
57827;BME280;43656;57.746;11.780;2023-01-27T01:37:47;102841.56;;;0.86;81.87
57827;BME280;43656;57.746;11.780;2023-01-27T01:40:13;102883.09;;;1.02;81.93
57827;BME280;43656;57.746;11.780;2023-01-27T01:43:02;102895.78;;;0.97;82.40
57827;BME280;43656;57.746;11.780;2023-01-27T01:47:57;102904.81;;;0.92;81.90
57827;BME280;43656;57.746;11.780;2023-01-27T01:50:23;102886.53;;;0.88;81.86
57827;BME280;43656;57.746;11.780;2023-01-27T01:52:49;102888.31;;;0.87;82.03
57827;BME280;43656;57.746;11.780;2023-01-27T01:55:15;102882.34;;;0.84;81.98
57827;BME280;43656;57.746;11.780;2023-01-27T01:57:41;102880.81;;;0.80;82.24
57827;BME280;43656;57.746;11.780;2023-01-27T02:00:08;102844.09;;;0.56;82.29
57827;BME280;43656;57.746;11.780;2023-01-27T02:02:35;102889.78;;;0.77;82.33
57827;BME280;43656;57.746;11.780;2023-01-27T02:05:17;102879.50;;;0.71;82.15
57827;BME280;43656;57.746;11.780;2023-01-27T02:10:27;102890.25;;;0.68;82.63
57827;BME280;43656;57.746;11.780;2023-01-27T02:12:52;102892.13;;;0.66;82.48
57827;BME280;43656;57.746;11.780;2023-01-27T02:15:18;102886.31;;;0.59;82.28
57827;BME280;43656;57.746;11.780;2023-01-27T02:17:46;102891.44;;;0.62;82.43
57827;BME280;43656;57.746;11.780;2023-01-27T02:20:43;102895.13;;;0.60;82.50
57827;BME280;43656;57.746;11.780;2023-01-27T02:28:29;102916.81;;;0.51;82.96
57827;BME280;43656;57.746;11.780;2023-01-27T02:30:55;102918.47;;;0.53;83.02
57827;BME280;43656;57.746;11.780;2023-01-27T02:33:21;102909.63;;;0.53;82.53
57827;BME280;43656;57.746;11.780;2023-01-27T02:35:50;102908.34;;;0.44;82.67
57827;BME280;43656;57.746;11.780;2023-01-27T02:38:17;102915.81;;;0.36;83.04
57827;BME280;43656;57.746;11.780;2023-01-27T02:40:47;102924.63;;;0.36;82.99
57827;BME280;43656;57.746;11.780;2023-01-27T02:43:16;102920.34;;;0.34;83.16
57827;BME280;43656;57.746;11.780;2023-01-27T02:45:41;102885.88;;;0.18;82.94
57827;BME280;43656;57.746;11.780;2023-01-27T02:48:09;102917.41;;;0.40;83.24
57827;BME280;43656;57.746;11.780;2023-01-27T02:50:34;102924.44;;;0.39;83.26
57827;BME280;43656;57.746;11.780;2023-01-27T02:53:00;102936.16;;;0.35;82.97
57827;BME280;43656;57.746;11.780;2023-01-27T02:55:25;102922.84;;;0.37;82.78
57827;BME280;43656;57.746;11.780;2023-01-27T02:57:51;102925.94;;;0.45;82.46
57827;BME280;43656;57.746;11.780;2023-01-27T03:00:16;102908.91;;;0.33;82.72
57827;BME280;43656;57.746;11.780;2023-01-27T03:02:42;102915.13;;;0.32;82.80
57827;BME280;43656;57.746;11.780;2023-01-27T03:05:07;102919.41;;;0.35;83.20
57827;BME280;43656;57.746;11.780;2023-01-27T03:07:33;102918.25;;;0.40;83.11
57827;BME280;43656;57.746;11.780;2023-01-27T03:09:58;102924.38;;;0.41;82.88
57827;BME280;43656;57.746;11.780;2023-01-27T03:12:24;102918.25;;;0.40;83.19
57827;BME280;43656;57.746;11.780;2023-01-27T03:14:50;102915.59;;;0.40;83.05
57827;BME280;43656;57.746;11.780;2023-01-27T03:17:35;102912.09;;;0.40;83.14
57827;BME280;43656;57.746;11.780;2023-01-27T03:20:20;102918.25;;;0.40;82.98
57827;BME280;43656;57.746;11.780;2023-01-27T03:22:48;102909.50;;;0.38;83.32
57827;BME280;43656;57.746;11.780;2023-01-27T03:25:14;102885.63;;;0.22;83.09
57827;BME280;43656;57.746;11.780;2023-01-27T03:27:39;102911.38;;;0.36;83.13
57827;BME280;43656;57.746;11.780;2023-01-27T03:30:06;102919.41;;;0.35;83.39
57827;BME280;43656;57.746;11.780;2023-01-27T03:32:32;102915.75;;;0.37;83.23
57827;BME280;43656;57.746;11.780;2023-01-27T03:34:58;102912.16;;;0.38;83.38
57827;BME280;43656;57.746;11.780;2023-01-27T03:37:28;102913.16;;;0.36;83.40
57827;BME280;43656;57.746;11.780;2023-01-27T03:40:13;102888.06;;;0.10;84.89
57827;BME280;43656;57.746;11.780;2023-01-27T03:42:58;102904.63;;;0.31;85.00
57827;BME280;43656;57.746;11.780;2023-01-27T03:45:45;102901.81;;;0.34;85.18
57827;BME280;43656;57.746;11.780;2023-01-27T03:48:30;102907.81;;;0.37;84.57
57827;BME280;43656;57.746;11.780;2023-01-27T03:51:00;102904.91;;;0.42;84.15
57827;BME280;43656;57.746;11.780;2023-01-27T03:53:26;102909.19;;;0.44;84.24
57827;BME280;43656;57.746;11.780;2023-01-27T03:55:52;102908.09;;;0.49;nan
57827;BME280;43656;57.746;11.780;2023-01-27T04:00:45;102914.22;;;0.49;83.80
57827;BME280;43656;57.746;11.780;2023-01-27T04:03:11;102922.28;;;0.47;83.70
57827;BME280;43656;57.746;11.780;2023-01-27T04:05:55;102873.59;;;0.17;83.85
57827;BME280;43656;57.746;11.780;2023-01-27T04:08:42;102895.47;;;0.36;83.78
57827;BME280;43656;57.746;11.780;2023-01-27T04:11:08;102881.81;;;0.28;84.19
57827;BME280;43656;57.746;11.780;2023-01-27T04:13:51;102896.84;;;0.28;84.04
57827;BME280;43656;57.746;11.780;2023-01-27T04:16:17;102899.03;;;0.19;83.70
57827;BME280;43656;57.746;11.780;2023-01-27T04:18:44;102904.31;;;0.19;84.08
57827;BME280;43656;57.746;11.780;2023-01-27T04:21:11;102905.50;;;0.14;83.90
57827;BME280;43656;57.746;11.780;2023-01-27T04:23:37;102894.13;;;0.12;83.80
57827;BME280;43656;57.746;11.780;2023-01-27T04:26:03;102902.06;;;0.12;83.95
57827;BME280;43656;57.746;11.780;2023-01-27T04:28:29;102910.19;;;0.09;84.17
57827;BME280;43656;57.746;11.780;2023-01-27T04:30:54;102907.63;;;0.07;84.18
57827;BME280;43656;57.746;11.780;2023-01-27T04:33:19;102900.59;;;0.06;83.80
57827;BME280;43656;57.746;11.780;2023-01-27T04:35:45;102915.88;;;0.01;84.03
57827;BME280;43656;57.746;11.780;2023-01-27T04:38:11;102910.59;;;0.01;83.87
57827;BME280;43656;57.746;11.780;2023-01-27T04:40:37;102912.13;;;0.05;83.93
57827;BME280;43656;57.746;11.780;2023-01-27T04:43:03;102910.28;;;0.07;83.91
57827;BME280;43656;57.746;11.780;2023-01-27T04:45:28;102913.94;;;0.05;83.75
57827;BME280;43656;57.746;11.780;2023-01-27T04:47:54;102911.69;;;-0.03;83.63
57827;BME280;43656;57.746;11.780;2023-01-27T04:50:19;102917.88;;;-0.04;83.72
57827;BME280;43656;57.746;11.780;2023-01-27T04:52:46;102921.38;;;-0.04;83.72
57827;BME280;43656;57.746;11.780;2023-01-27T04:55:11;102910.19;;;-0.09;83.53
57827;BME280;43656;57.746;11.780;2023-01-27T04:57:37;102916.19;;;-0.05;83.44
57827;BME280;43656;57.746;11.780;2023-01-27T05:00:03;102918.44;;;-0.15;83.32
57827;BME280;43656;57.746;11.780;2023-01-27T05:02:30;102923.72;;;-0.15;83.71
57827;BME280;43656;57.746;11.780;2023-01-27T05:04:56;102924.81;;;-0.19;83.71
57827;BME280;43656;57.746;11.780;2023-01-27T05:07:22;102916.94;;;-0.20;83.91
57827;BME280;43656;57.746;11.780;2023-01-27T05:09:47;102921.31;;;-0.19;83.74
57827;BME280;43656;57.746;11.780;2023-01-27T05:12:13;102922.19;;;-0.19;83.71
57827;BME280;43656;57.746;11.780;2023-01-27T05:14:38;102900.91;;;-0.35;83.77
57827;BME280;43656;57.746;11.780;2023-01-27T05:17:04;102912.59;;;-0.21;83.46
57827;BME280;43656;57.746;11.780;2023-01-27T05:19:29;102907.56;;;-0.26;83.60
57827;BME280;43656;57.746;11.780;2023-01-27T05:21:55;102905.34;;;-0.35;83.92
57827;BME280;43656;57.746;11.780;2023-01-27T05:24:20;102919.19;;;-0.30;83.82
57827;BME280;43656;57.746;11.780;2023-01-27T05:26:46;102920.78;;;-0.26;84.01
57827;BME280;43656;57.746;11.780;2023-01-27T05:29:11;102914.53;;;-0.25;83.60
57827;BME280;43656;57.746;11.780;2023-01-27T05:31:36;102918.03;;;-0.25;84.14
57827;BME280;43656;57.746;11.780;2023-01-27T05:34:02;102912.50;;;-0.20;83.84
57827;BME280;43656;57.746;11.780;2023-01-27T05:36:28;102917.03;;;-0.22;83.74
57827;BME280;43656;57.746;11.780;2023-01-27T05:38:54;102912.13;;;-0.30;83.88
57827;BME280;43656;57.746;11.780;2023-01-27T05:41:20;102925.28;;;-0.28;83.83
57827;BME280;43656;57.746;11.780;2023-01-27T05:43:52;102926.28;;;-0.31;83.91
57827;BME280;43656;57.746;11.780;2023-01-27T05:46:22;102918.72;;;-0.38;83.76
57827;BME280;43656;57.746;11.780;2023-01-27T05:48:50;102921.13;;;-0.34;83.99
57827;BME280;43656;57.746;11.780;2023-01-27T05:51:17;102919.59;;;-0.38;84.13
57827;BME280;43656;57.746;11.780;2023-01-27T05:53:43;102925.72;;;-0.37;83.88
57827;BME280;43656;57.746;11.780;2023-01-27T05:56:11;102937.25;;;-0.38;83.83
57827;BME280;43656;57.746;11.780;2023-01-27T05:58:37;102945.47;;;-0.44;83.61
57827;BME280;43656;57.746;11.780;2023-01-27T06:01:07;102940.19;;;-0.44;84.06
57827;BME280;43656;57.746;11.780;2023-01-27T06:03:33;102928.13;;;-0.50;83.84
57827;BME280;43656;57.746;11.780;2023-01-27T06:05:59;102939.09;;;-0.40;84.47
57827;BME280;43656;57.746;11.780;2023-01-27T06:08:25;102941.59;;;-0.37;84.14
57827;BME280;43656;57.746;11.780;2023-01-27T06:10:51;102943.47;;;-0.39;83.97
57827;BME280;43656;57.746;11.780;2023-01-27T06:13:18;102917.06;;;-0.58;83.82
57827;BME280;43656;57.746;11.780;2023-01-27T06:15:46;102946.31;;;-0.44;83.64
57827;BME280;43656;57.746;11.780;2023-01-27T06:18:12;102937.00;;;-0.51;83.74
57827;BME280;43656;57.746;11.780;2023-01-27T06:20:38;102942.22;;;-0.50;84.10
57827;BME280;43656;57.746;11.780;2023-01-27T06:23:05;102946.63;;;-0.50;84.01
57827;BME280;43656;57.746;11.780;2023-01-27T06:25:34;102952.00;;;-0.52;83.99
57827;BME280;43656;57.746;11.780;2023-01-27T06:28:00;102947.84;;;-0.57;83.78
57827;BME280;43656;57.746;11.780;2023-01-27T06:30:25;102941.25;;;-0.66;83.82
57827;BME280;43656;57.746;11.780;2023-01-27T06:32:51;102959.59;;;-0.63;83.80
57827;BME280;43656;57.746;11.780;2023-01-27T06:35:16;102958.81;;;-0.65;83.91
57827;BME280;43656;57.746;11.780;2023-01-27T06:37:42;102957.72;;;-0.61;83.68
57827;BME280;43656;57.746;11.780;2023-01-27T06:40:08;102964.91;;;-0.63;83.73
57827;BME280;43656;57.746;11.780;2023-01-27T06:42:34;102957.81;;;-0.62;83.87
57827;BME280;43656;57.746;11.780;2023-01-27T06:45:00;102961.38;;;-0.63;83.77
57827;BME280;43656;57.746;11.780;2023-01-27T06:47:25;102962.03;;;-0.58;83.62
57827;BME280;43656;57.746;11.780;2023-01-27T06:49:50;102960.38;;;-0.61;83.63
57827;BME280;43656;57.746;11.780;2023-01-27T06:52:16;102945.25;;;-0.76;83.73
57827;BME280;43656;57.746;11.780;2023-01-27T06:54:41;102965.75;;;-0.62;83.40
57827;BME280;43656;57.746;11.780;2023-01-27T06:57:10;102946.69;;;-0.69;83.74
57827;BME280;43656;57.746;11.780;2023-01-27T06:59:35;102967.53;;;-0.63;83.57
57827;BME280;43656;57.746;11.780;2023-01-27T07:02:01;102965.75;;;-0.62;83.98
57827;BME280;43656;57.746;11.780;2023-01-27T07:04:26;102972.66;;;-0.60;83.64
57827;BME280;43656;57.746;11.780;2023-01-27T07:06:51;102965.50;;;-0.58;83.38
57827;BME280;43656;57.746;11.780;2023-01-27T07:09:17;102955.66;;;-0.54;83.92
57827;BME280;43656;57.746;11.780;2023-01-27T07:11:42;102955.59;;;-0.53;83.58
57827;BME280;43656;57.746;11.780;2023-01-27T07:14:09;102946.31;;;-0.61;83.49
57827;BME280;43656;57.746;11.780;2023-01-27T07:16:34;102954.66;;;-0.52;83.76
57827;BME280;43656;57.746;11.780;2023-01-27T07:18:59;102952.00;;;-0.52;83.92
57827;BME280;43656;57.746;11.780;2023-01-27T07:21:25;102912.22;;;-0.67;83.42
57827;BME280;43656;57.746;11.780;2023-01-27T07:23:50;102942.22;;;-0.50;83.90
57827;BME280;43656;57.746;11.780;2023-01-27T07:26:16;102954.56;;;-0.50;83.85
57827;BME280;43656;57.746;11.780;2023-01-27T07:28:41;102958.22;;;-0.53;83.77
57827;BME280;43656;57.746;11.780;2023-01-27T07:31:06;102952.00;;;-0.52;83.75
57827;BME280;43656;57.746;11.780;2023-01-27T07:33:32;102945.63;;;-0.48;83.74
57827;BME280;43656;57.746;11.780;2023-01-27T07:35:57;102954.22;;;-0.42;83.76
57827;BME280;43656;57.746;11.780;2023-01-27T07:38:22;102946.19;;;-0.41;83.89
57827;BME280;43656;57.746;11.780;2023-01-27T07:40:48;102953.19;;;-0.40;83.94
57827;BME280;43656;57.746;11.780;2023-01-27T07:43:13;102955.91;;;-0.41;83.93
57827;BME280;43656;57.746;11.780;2023-01-27T07:45:39;102952.47;;;-0.43;83.46
57827;BME280;43656;57.746;11.780;2023-01-27T07:48:06;102947.31;;;-0.47;83.98
57827;BME280;43656;57.746;11.780;2023-01-27T07:50:34;102959.34;;;-0.39;84.04
57827;BME280;43656;57.746;11.780;2023-01-27T07:53:01;102959.13;;;-0.35;83.70
57827;BME280;43656;57.746;11.780;2023-01-27T07:55:27;102961.59;;;-0.32;83.51
57827;BME280;43656;57.746;11.780;2023-01-27T07:57:53;102956.22;;;-0.30;83.74
57827;BME280;43656;57.746;11.780;2023-01-27T08:00:20;102957.03;;;-0.28;83.86
57827;BME280;43656;57.746;11.780;2023-01-27T08:02:52;102955.31;;;-0.29;83.94
57827;BME280;43656;57.746;11.780;2023-01-27T08:05:18;102971.03;;;-0.26;83.54
57827;BME280;43656;57.746;11.780;2023-01-27T08:08:04;102970.56;;;-0.17;83.69
57827;BME280;43656;57.746;11.780;2023-01-27T08:10:30;102966.84;;;-0.13;83.01
57827;BME280;43656;57.746;11.780;2023-01-27T08:12:55;102940.28;;;-0.29;83.14
57827;BME280;43656;57.746;11.780;2023-01-27T08:15:21;102943.56;;;-0.24;83.15
57827;BME280;43656;57.746;11.780;2023-01-27T08:17:54;102941.94;;;-0.26;83.28
57827;BME280;43656;57.746;11.780;2023-01-27T08:20:20;102965.66;;;-0.07;83.12
57827;BME280;43656;57.746;11.780;2023-01-27T08:22:46;102958.53;;;-0.05;83.02
57827;BME280;43656;57.746;11.780;2023-01-27T08:25:13;102956.66;;;-0.03;83.33
57827;BME280;43656;57.746;11.780;2023-01-27T08:27:39;102950.28;;;0.01;83.20
57827;BME280;43656;57.746;11.780;2023-01-27T08:30:05;102956.56;;;-0.02;83.11
57827;BME280;43656;57.746;11.780;2023-01-27T08:32:30;102954.72;;;0.01;83.25
57827;BME280;43656;57.746;11.780;2023-01-27T08:34:56;102955.63;;;-0.01;83.20
57827;BME280;43656;57.746;11.780;2023-01-27T08:37:21;102960.88;;;0.01;83.38
57827;BME280;43656;57.746;11.780;2023-01-27T08:39:46;102969.50;;;0.05;83.33
57827;BME280;43656;57.746;11.780;2023-01-27T08:42:12;102959.63;;;0.08;83.55
57827;BME280;43656;57.746;11.780;2023-01-27T08:44:37;102955.03;;;0.12;83.40
57827;BME280;43656;57.746;11.780;2023-01-27T08:47:02;102949.88;;;0.09;83.41
57827;BME280;43656;57.746;11.780;2023-01-27T08:49:29;102956.03;;;0.09;83.58
57827;BME280;43656;57.746;11.780;2023-01-27T08:51:55;102945.44;;;0.09;83.64
57827;BME280;43656;57.746;11.780;2023-01-27T08:54:20;102922.16;;;-0.02;83.52
57827;BME280;43656;57.746;11.780;2023-01-27T08:56:45;102950.97;;;0.22;83.38
57827;BME280;43656;57.746;11.780;2023-01-27T08:59:11;102943.13;;;0.20;83.23
57827;BME280;43656;57.746;11.780;2023-01-27T09:01:36;102933.69;;;0.15;83.31
57827;BME280;43656;57.746;11.780;2023-01-27T09:04:02;102950.75;;;0.27;83.42
57827;BME280;43656;57.746;11.780;2023-01-27T09:06:27;102955.00;;;0.29;83.37
57827;BME280;43656;57.746;11.780;2023-01-27T09:08:52;102940.22;;;0.25;83.15
57827;BME280;43656;57.746;11.780;2023-01-27T09:11:34;102946.59;;;0.38;83.23
57827;BME280;43656;57.746;11.780;2023-01-27T09:14:00;102950.63;;;0.45;83.50
57827;BME280;43656;57.746;11.780;2023-01-27T09:16:26;102955.00;;;0.46;83.38
57827;BME280;43656;57.746;11.780;2023-01-27T09:18:51;102966.34;;;0.49;83.41
57827;BME280;43656;57.746;11.780;2023-01-27T09:21:17;102965.41;;;0.50;83.58
57827;BME280;43656;57.746;11.780;2023-01-27T09:23:42;102971.25;;;0.56;83.73
57827;BME280;43656;57.746;11.780;2023-01-27T09:26:08;102966.56;;;0.61;83.63
57827;BME280;43656;57.746;11.780;2023-01-27T09:28:33;102964.19;;;0.57;83.56
57827;BME280;43656;57.746;11.780;2023-01-27T09:30:59;102971.19;;;0.58;83.22
57827;BME280;43656;57.746;11.780;2023-01-27T09:33:25;102949.34;;;0.53;83.42
57827;BME280;43656;57.746;11.780;2023-01-27T09:35:58;102963.75;;;0.64;83.53
57827;BME280;43656;57.746;11.780;2023-01-27T09:38:27;102960.69;;;0.72;83.39
57827;BME280;43656;57.746;11.780;2023-01-27T09:49:30;102969.22;;;0.94;83.49
57827;BME280;43656;57.746;11.780;2023-01-27T09:55:28;102965.13;;;1.05;83.30
57827;BME280;43656;57.746;11.780;2023-01-27T09:58:32;102976.16;;;1.13;83.25
57827;BME280;43656;57.746;11.780;2023-01-27T10:07:01;102957.00;;;1.24;83.15
57827;BME280;43656;57.746;11.780;2023-01-27T10:12:48;102952.78;;;1.35;83.28
57827;BME280;43656;57.746;11.780;2023-01-27T10:20:58;102967.97;;;1.49;83.24
57827;BME280;43656;57.746;11.780;2023-01-27T10:26:49;102955.59;;;1.64;83.13
57827;BME280;43656;57.746;11.780;2023-01-27T10:29:23;102955.88;;;1.59;82.76
57827;BME280;43656;57.746;11.780;2023-01-27T10:31:56;102949.47;;;1.48;83.45
57827;BME280;43656;57.746;11.780;2023-01-27T10:34:27;102955.94;;;1.58;83.29
57827;BME280;43656;57.746;11.780;2023-01-27T10:37:03;102962.97;;;1.59;83.15
57827;BME280;43656;57.746;11.780;2023-01-27T10:39:43;102956.56;;;1.63;83.26
57827;BME280;43656;57.746;11.780;2023-01-27T10:47:50;102965.09;;;1.98;83.33
57827;BME280;43656;57.746;11.780;2023-01-27T10:50:29;102955.94;;;2.04;83.66
57827;BME280;43656;57.746;11.780;2023-01-27T10:55:56;102948.00;;;2.18;83.26
57827;BME280;43656;57.746;11.780;2023-01-27T11:01:05;102943.47;;;2.20;82.97
57827;BME280;43656;57.746;11.780;2023-01-27T11:06:11;102942.72;;;2.32;83.38
57827;BME280;43656;57.746;11.780;2023-01-27T11:08:42;102916.53;;;2.26;83.17
57827;BME280;43656;57.746;11.780;2023-01-27T11:11:09;102953.19;;;2.50;82.96
57827;BME280;43656;57.746;11.780;2023-01-27T11:17:11;102955.28;;;2.59;83.77
57827;BME280;43656;57.746;11.780;2023-01-27T11:19:45;102954.50;;;2.71;83.41
57827;BME280;43656;57.746;11.780;2023-01-27T11:22:20;102921.47;;;2.61;83.06
57827;BME280;43656;57.746;11.780;2023-01-27T11:25:03;102926.03;;;2.59;83.22
57827;BME280;43656;57.746;11.780;2023-01-27T11:27:40;102919.00;;;2.58;83.69
57827;BME280;43656;57.746;11.780;2023-01-27T11:30:18;102923.75;;;2.67;83.25
57827;BME280;43656;57.746;11.780;2023-01-27T11:35:22;102927.72;;;2.74;83.13
57827;BME280;43656;57.746;11.780;2023-01-27T11:37:50;102923.75;;;2.81;83.31
57827;BME280;43656;57.746;11.780;2023-01-27T11:40:34;102935.91;;;2.86;83.42
57827;BME280;43656;57.746;11.780;2023-01-27T11:43:00;102922.31;;;2.90;83.75
57827;BME280;43656;57.746;11.780;2023-01-27T11:45:30;102917.25;;;3.00;83.30
57827;BME280;43656;57.746;11.780;2023-01-27T11:47:59;102920.06;;;3.11;82.72
57827;BME280;43656;57.746;11.780;2023-01-27T11:50:32;102921.00;;;3.24;83.37
57827;BME280;43656;57.746;11.780;2023-01-27T11:53:29;102909.97;;;3.30;83.09
57827;BME280;43656;57.746;11.780;2023-01-27T11:56:19;102908.59;;;3.38;82.91
57827;BME280;43656;57.746;11.780;2023-01-27T11:58:49;102889.13;;;3.37;82.64
57827;BME280;43656;57.746;11.780;2023-01-27T12:01:21;102903.97;;;3.54;82.09
57827;BME280;43656;57.746;11.780;2023-01-27T12:03:56;102890.19;;;3.62;82.74
57827;BME280;43656;57.746;11.780;2023-01-27T12:08:59;102888.00;;;3.81;81.72
57827;BME280;43656;57.746;11.780;2023-01-27T12:11:27;102886.50;;;3.90;82.19
57827;BME280;43656;57.746;11.780;2023-01-27T12:13:58;102858.38;;;3.86;81.43
57827;BME280;43656;57.746;11.780;2023-01-27T12:16:47;102875.31;;;4.10;81.57
57827;BME280;43656;57.746;11.780;2023-01-27T12:19:27;102871.72;;;4.11;81.71
57827;BME280;43656;57.746;11.780;2023-01-27T12:22:06;102871.31;;;4.17;82.11
57827;BME280;43656;57.746;11.780;2023-01-27T12:24:39;102861.16;;;4.22;81.39
57827;BME280;43656;57.746;11.780;2023-01-27T12:27:06;102853.91;;;4.24;81.94
57827;BME280;43656;57.746;11.780;2023-01-27T12:29:41;102854.56;;;4.28;81.70
57827;BME280;43656;57.746;11.780;2023-01-27T12:32:42;102857.44;;;4.38;81.70
57827;BME280;43656;57.746;11.780;2023-01-27T12:35:25;102845.25;;;4.46;81.26
57827;BME280;43656;57.746;11.780;2023-01-27T12:38:15;102845.66;;;4.53;81.53
57827;BME280;43656;57.746;11.780;2023-01-27T12:40:44;102845.13;;;4.61;81.00
57827;BME280;43656;57.746;11.780;2023-01-27T12:43:13;102855.44;;;4.65;80.87
57827;BME280;43656;57.746;11.780;2023-01-27T12:45:39;102846.47;;;4.66;81.60
57827;BME280;43656;57.746;11.780;2023-01-27T12:50:36;102839.91;;;4.83;80.91
57827;BME280;43656;57.746;11.780;2023-01-27T12:53:10;102837.78;;;4.88;80.94
57827;BME280;43656;57.746;11.780;2023-01-27T12:55:42;102844.50;;;4.94;80.91
57827;BME280;43656;57.746;11.780;2023-01-27T12:58:46;102834.69;;;4.94;81.20
57827;BME280;43656;57.746;11.780;2023-01-27T13:01:36;102838.81;;;4.99;80.84
57827;BME280;43656;57.746;11.780;2023-01-27T13:04:20;102842.00;;;5.04;81.01
57827;BME280;43656;57.746;11.780;2023-01-27T13:06:49;102849.13;;;5.03;81.27
57827;BME280;43656;57.746;11.780;2023-01-27T13:09:31;102838.78;;;5.11;81.38
57827;BME280;43656;57.746;11.780;2023-01-27T13:12:01;102833.22;;;5.14;81.31
57827;BME280;43656;57.746;11.780;2023-01-27T13:14:34;102830.31;;;5.17;81.31
57827;BME280;43656;57.746;11.780;2023-01-27T13:16:59;102801.63;;;5.08;81.12
57827;BME280;43656;57.746;11.780;2023-01-27T13:19:36;102824.56;;;5.35;81.38
57827;BME280;43656;57.746;11.780;2023-01-27T13:22:04;102819.84;;;5.38;81.22
57827;BME280;43656;57.746;11.780;2023-01-27T13:24:39;102804.44;;;5.42;81.38
57827;BME280;43656;57.746;11.780;2023-01-27T13:27:09;102806.88;;;5.45;80.71
57827;BME280;43656;57.746;11.780;2023-01-27T13:29:37;102806.38;;;5.40;80.96
57827;BME280;43656;57.746;11.780;2023-01-27T13:32:20;102807.63;;;5.47;81.24
57827;BME280;43656;57.746;11.780;2023-01-27T13:34:56;102803.75;;;5.51;81.35
57827;BME280;43656;57.746;11.780;2023-01-27T13:37:45;102797.41;;;5.52;80.90
57827;BME280;43656;57.746;11.780;2023-01-27T13:40:27;102801.06;;;5.51;81.28
57827;BME280;43656;57.746;11.780;2023-01-27T13:45:38;102784.81;;;5.43;81.19
57827;BME280;43656;57.746;11.780;2023-01-27T13:48:25;102784.91;;;5.41;81.26
57827;BME280;43656;57.746;11.780;2023-01-27T13:51:02;102781.00;;;5.34;81.58
57827;BME280;43656;57.746;11.780;2023-01-27T13:53:29;102766.53;;;5.26;81.98
57827;BME280;43656;57.746;11.780;2023-01-27T13:56:03;102772.84;;;5.25;82.04
57827;BME280;43656;57.746;11.780;2023-01-27T14:14:47;102766.03;;;4.97;83.05
57827;BME280;43656;57.746;11.780;2023-01-27T14:23:28;102758.78;;;4.75;82.95
57827;BME280;43656;57.746;11.780;2023-01-27T14:26:08;102764.22;;;4.73;83.36
57827;BME280;43656;57.746;11.780;2023-01-27T14:31:11;102759.63;;;4.51;83.47
57827;BME280;43656;57.746;11.780;2023-01-27T14:39:09;102753.91;;;4.32;84.02
57827;BME280;43656;57.746;11.780;2023-01-27T14:41:45;102756.03;;;4.27;84.29